Portada
METAR-TAF:

METAR-TAF

Aeroports :

Khon Kaen, Tailàndia

latitud: 16-26N, longitud: 102-50E, altitud: 165 m

Observació

L'informe es va fer fa 28 minuts, a les 00:00 UTC
Vent 4 kt del Est/Nord-Est, variant entre Nord i Est/Sud-Est
Temperatura 27°C
Humitat 74%
Pressió 1012 hPa
Visibilitat: 9000 m
Escasses núvols a una alçada de 3000 ft

METAR: VTUK 040000Z 06004KT 010V120 9000 FEW030 27/22 Q1012 NOSIG

Hora: 07:28 (00:28 UTC)

Pronòstic

L'informe es va fer fa 1 hora i 28 minuts, a les 23:00 UTC
Pronòstic vàlid del 04 a les 00 UTC al 04 a les 24 UTC
Vent 4 kt del Est
Visibilitat: 7000 m
Escasses núvols a una alçada de 3000 ft
Temporalment
l' 04 a les 08 UTC al 04 a les 15 UTC
Visibilitat: 5000 m
Escasses núvols a una alçada de 1800 ft, Cumulonimbus.
Cel ennuvolat a una alçada de 3000 ft
tempesta, pluja

TAF: VTUK 032300Z 0400/0424 08004KT 7000 FEW030 TEMPO 0408/0415 5000 TSRA FEW018CB BKN030

Observacions i pronòstics meteorològics de més de 4000 aeroports (METAR i TAF).

Les estacions disponibles són els punts grocs i vermells al mapa.

Posi el ratolí al punt desitjat per veure el nom de l'estació.

Feu clic per veure les observacions i els pronòstics meteorològics.

Per canviar el mapa: feu clic els botons verds amb una creu de color negre per apropar; al botó verd amb un guió per allunyar la imatge; o en les fletxes verdes per a mapes adjacents.


METAR-TAF: